Time;durP1;ratioP1;P1;durP2;ratioP2;P2;SDS_P1;SDS_P2;PMS_P1;PMS_P2;Temp;Humidity;BMP_temperature;BMP_pressure;BME280_temperature;BME280_humidity;BME280_pressure;Samples;Min_cycle;Max_cycle;Signal;HPM_P1;HPM_P2
2022/06/29 00:00:55;;;;;;;0.30;0.30;;;17.10;99.90;;;;;;5097214;28;20234;-78
2022/06/29 00:03:21;;;;;;;0.40;0.40;;;17.00;99.90;;;;;;5097467;28;20185;-78
2022/06/29 00:05:47;;;;;;;0.30;0.30;;;17.00;99.90;;;;;;5098462;28;20226;-78
2022/06/29 00:08:12;;;;;;;0.30;0.30;;;16.90;99.90;;;;;;5102774;28;20210;-79
2022/06/29 00:10:38;;;;;;;0.40;0.40;;;16.80;99.90;;;;;;5104195;28;20707;-78
2022/06/29 00:13:04;;;;;;;0.37;0.37;;;16.80;99.90;;;;;;5104283;28;20224;-80
2022/06/29 00:15:31;;;;;;;0.40;0.40;;;16.70;99.90;;;;;;5105901;28;20173;-78
2022/06/29 00:17:56;;;;;;;0.40;0.40;;;16.60;99.90;;;;;;5105763;28;20169;-78
2022/06/29 00:20:22;;;;;;;0.40;0.40;;;16.60;99.90;;;;;;5109584;28;20297;-79
2022/06/29 00:22:47;;;;;;;0.40;0.40;;;16.60;99.90;;;;;;5104863;28;20198;-78
2022/06/29 00:25:14;;;;;;;0.30;0.30;;;16.70;99.90;;;;;;5107865;28;20189;-79
2022/06/29 00:27:41;;;;;;;0.40;0.40;;;16.60;99.90;;;;;;5107727;28;20177;-78
2022/06/29 00:30:08;;;;;;;0.30;0.30;;;16.60;99.90;;;;;;5102508;28;20174;-78
2022/06/29 00:32:33;;;;;;;0.37;0.37;;;16.60;99.90;;;;;;5090570;28;20214;-78
2022/06/29 00:34:59;;;;;;;0.40;0.40;;;16.50;99.90;;;;;;5083018;28;20701;-78
2022/06/29 00:37:26;;;;;;;0.30;0.30;;;16.60;99.90;;;;;;5086137;28;20174;-78
2022/06/29 00:39:52;;;;;;;0.30;0.30;;;16.50;99.90;;;;;;5084836;28;20214;-78
2022/06/29 00:42:17;;;;;;;0.30;0.30;;;16.50;99.90;;;;;;5095394;28;20218;-78
2022/06/29 00:44:43;;;;;;;0.30;0.30;;;16.50;99.90;;;;;;5112426;28;21141;-79
2022/06/29 00:47:09;;;;;;;0.30;0.30;;;16.50;99.90;;;;;;5109937;28;20201;-79
2022/06/29 00:49:35;;;;;;;0.30;0.30;;;16.50;99.90;;;;;;5108527;28;20265;-79
2022/06/29 00:52:11;;;;;;;0.30;0.30;;;16.40;99.90;;;;;;5104880;28;20189;-79
2022/06/29 00:54:39;;;;;;;0.30;0.30;;;16.40;99.90;;;;;;5107330;28;20177;-79
2022/06/29 00:57:20;;;;;;;0.40;0.40;;;16.30;99.90;;;;;;5105980;28;20587;-79
2022/06/29 00:59:52;;;;;;;0.40;0.40;;;16.30;99.90;;;;;;5105539;28;20212;-80
2022/06/29 01:02:21;;;;;;;0.40;0.40;;;16.30;99.90;;;;;;5104652;28;20197;-79
2022/06/29 01:04:47;;;;;;;0.30;0.30;;;16.30;99.90;;;;;;5106073;28;20208;-79
2022/06/29 01:07:18;;;;;;;0.30;0.30;;;16.40;99.90;;;;;;5108064;28;20180;-82
2022/06/29 01:09:44;;;;;;;0.30;0.30;;;16.40;99.90;;;;;;5110237;28;20553;-79
2022/06/29 01:12:10;;;;;;;0.37;0.37;;;16.50;99.90;;;;;;5100154;28;20190;-79
2022/06/29 01:14:36;;;;;;;0.40;0.40;;;16.50;99.90;;;;;;5088570;28;20186;-79
2022/06/29 01:17:02;;;;;;;0.30;0.30;;;16.50;99.90;;;;;;5089630;28;20284;-80
2022/06/29 01:19:27;;;;;;;0.40;0.40;;;16.50;99.90;;;;;;5085690;28;20706;-78
2022/06/29 01:21:55;;;;;;;0.30;0.30;;;16.50;99.90;;;;;;5085702;28;20201;-79
2022/06/29 01:24:22;;;;;;;0.30;0.30;;;16.50;99.90;;;;;;5086050;28;20265;-79
2022/06/29 01:26:48;;;;;;;0.30;0.30;;;16.50;99.90;;;;;;5086087;28;20183;-79
2022/06/29 01:29:17;;;;;;;0.40;0.40;;;16.40;99.90;;;;;;5085582;28;20213;-79
2022/06/29 01:31:44;;;;;;;0.40;0.40;;;16.40;99.90;;;;;;5088369;28;20186;-78
2022/06/29 01:34:09;;;;;;;0.30;0.30;;;16.30;99.90;;;;;;5107765;28;20234;-80
2022/06/29 01:36:35;;;;;;;0.40;0.40;;;16.30;99.90;;;;;;5109027;28;20197;-79
2022/06/29 01:39:01;;;;;;;0.40;0.40;;;16.20;99.90;;;;;;5108254;28;20215;-79
2022/06/29 01:41:26;;;;;;;0.30;0.30;;;16.20;99.90;;;;;;5105415;28;20172;-80
2022/06/29 01:43:52;;;;;;;0.30;0.30;;;16.10;99.90;;;;;;5089408;28;20251;-79
2022/06/29 01:46:17;;;;;;;0.30;0.30;;;16.10;99.90;;;;;;5091075;28;20186;-78
2022/06/29 01:48:43;;;;;;;0.40;0.40;;;16.10;99.90;;;;;;5093509;28;20185;-78
2022/06/29 01:51:08;;;;;;;0.30;0.30;;;16.10;99.90;;;;;;5092454;28;20265;-78
2022/06/29 01:53:34;;;;;;;0.30;0.30;;;16.10;99.90;;;;;;5091436;28;20203;-79
2022/06/29 01:56:00;;;;;;;0.30;0.30;;;16.10;99.90;;;;;;5086797;28;20201;-78
2022/06/29 01:58:25;;;;;;;0.30;0.30;;;16.00;99.90;;;;;;5083279;28;20670;-78
2022/06/29 02:00:51;;;;;;;0.40;0.40;;;16.00;99.90;;;;;;5081338;28;20222;-78
2022/06/29 02:03:16;;;;;;;0.37;0.37;;;16.00;99.90;;;;;;5082708;28;20254;-78
2022/06/29 02:05:42;;;;;;;0.30;0.30;;;16.00;99.90;;;;;;5084866;28;20298;-78
2022/06/29 02:08:07;;;;;;;0.30;0.30;;;15.90;99.90;;;;;;5082649;28;20171;-78
2022/06/29 02:10:33;;;;;;;0.30;0.30;;;15.90;99.90;;;;;;5083176;28;20287;-78
2022/06/29 02:12:59;;;;;;;0.40;0.40;;;15.90;99.90;;;;;;5080741;28;20195;-79
2022/06/29 02:15:24;;;;;;;0.30;0.30;;;15.80;99.90;;;;;;5081461;28;20182;-78
2022/06/29 02:17:51;;;;;;;0.40;0.40;;;15.80;99.90;;;;;;5081698;28;20642;-78
2022/06/29 02:20:16;;;;;;;0.30;0.30;;;15.70;99.90;;;;;;5081605;28;20217;-78
2022/06/29 02:22:42;;;;;;;0.30;0.30;;;15.80;99.90;;;;;;5080397;28;20281;-78
2022/06/29 02:25:08;;;;;;;0.30;0.30;;;15.80;99.90;;;;;;5082293;28;20184;-78
2022/06/29 02:27:38;;;;;;;0.40;0.40;;;15.80;99.90;;;;;;5082982;28;20479;-78
2022/06/29 02:30:04;;;;;;;0.40;0.40;;;15.90;99.90;;;;;;5082572;28;20213;-79
2022/06/29 02:35:14;;;;;;;0.40;0.40;;;16.00;99.90;;;;;;5084791;28;20586;-78
2022/06/29 02:37:39;;;;;;;0.30;0.30;;;16.00;99.90;;;;;;5084620;28;20171;-78
2022/06/29 02:40:05;;;;;;;0.30;0.30;;;15.90;99.90;;;;;;5083542;28;20284;-78
2022/06/29 02:42:31;;;;;;;0.40;0.40;;;15.80;99.90;;;;;;5082604;28;20194;-79
2022/06/29 02:44:56;;;;;;;0.40;0.40;;;15.80;99.90;;;;;;5084044;28;20162;-79
2022/06/29 02:47:22;;;;;;;0.40;0.40;;;15.70;99.90;;;;;;5084110;28;20197;-79
2022/06/29 02:49:48;;;;;;;0.40;0.40;;;15.70;99.90;;;;;;5084505;28;20549;-79
2022/06/29 02:52:13;;;;;;;0.40;0.40;;;15.70;99.90;;;;;;5092094;28;20198;-79
2022/06/29 02:54:39;;;;;;;0.50;0.50;;;15.70;99.90;;;;;;5105307;28;20177;-79
2022/06/29 02:57:04;;;;;;;0.33;0.33;;;15.60;99.90;;;;;;5104110;28;20223;-79
2022/06/29 02:59:30;;;;;;;0.30;0.30;;;15.60;99.90;;;;;;5099984;28;20205;-78
2022/06/29 03:01:55;;;;;;;0.30;0.30;;;15.60;99.90;;;;;;5096590;28;20216;-79
2022/06/29 03:04:21;;;;;;;0.33;0.33;;;15.60;99.90;;;;;;5081956;28;20170;-79
2022/06/29 03:06:46;;;;;;;0.30;0.30;;;15.60;99.90;;;;;;5081927;28;20162;-79
2022/06/29 03:09:12;;;;;;;0.40;0.40;;;15.60;99.90;;;;;;5084037;28;20205;-78
2022/06/29 03:11:37;;;;;;;0.50;0.50;;;15.60;99.90;;;;;;5077959;28;20198;-79
2022/06/29 03:14:03;;;;;;;0.30;0.30;;;15.50;99.90;;;;;;5077770;28;20588;-78
2022/06/29 03:16:29;;;;;;;0.40;0.40;;;15.50;99.90;;;;;;5078936;28;20186;-78
2022/06/29 03:18:55;;;;;;;0.30;0.30;;;15.50;99.90;;;;;;5079590;28;20270;-79
2022/06/29 03:21:20;;;;;;;0.40;0.40;;;15.50;99.90;;;;;;5079725;28;20474;-79
2022/06/29 03:23:46;;;;;;;0.40;0.40;;;15.40;99.90;;;;;;5098479;28;20181;-79
2022/06/29 03:26:12;;;;;;;0.40;0.40;;;15.40;99.90;;;;;;5099540;28;20169;-79
2022/06/29 03:28:38;;;;;;;0.37;0.37;;;15.40;99.90;;;;;;5099200;28;20257;-78
2022/06/29 03:31:04;;;;;;;0.30;0.30;;;15.40;99.90;;;;;;5099772;28;20197;-80
2022/06/29 03:33:30;;;;;;;0.30;0.30;;;15.50;99.90;;;;;;5079698;28;20209;-78
2022/06/29 03:35:56;;;;;;;0.40;0.40;;;15.50;99.90;;;;;;5080317;28;20170;-78
2022/06/29 03:38:21;;;;;;;0.37;0.37;;;15.50;99.90;;;;;;5077567;28;20182;-78
2022/06/29 03:40:47;;;;;;;0.30;0.30;;;15.50;99.90;;;;;;5076995;28;20297;-78
2022/06/29 03:43:12;;;;;;;0.40;0.40;;;15.50;99.90;;;;;;5076353;28;20735;-78
2022/06/29 03:45:38;;;;;;;0.30;0.30;;;15.60;99.90;;;;;;5076281;28;20189;-79
2022/06/29 03:48:04;;;;;;;0.30;0.30;;;15.60;99.90;;;;;;5076399;28;20178;-79
2022/06/29 03:50:29;;;;;;;0.30;0.30;;;15.60;99.90;;;;;;5076177;28;20182;-79
2022/06/29 03:52:55;;;;;;;0.30;0.30;;;15.50;99.90;;;;;;5074568;28;20620;-78
2022/06/29 03:55:20;;;;;;;0.40;0.40;;;15.50;99.90;;;;;;5076247;28;20221;-78
2022/06/29 03:57:46;;;;;;;0.40;0.40;;;15.50;99.90;;;;;;5076175;28;20163;-78
2022/06/29 04:00:12;;;;;;;0.30;0.30;;;15.50;99.90;;;;;;5076164;28;20573;-78
2022/06/29 04:02:38;;;;;;;0.40;0.40;;;15.50;99.90;;;;;;5075928;28;20691;-78
2022/06/29 04:05:04;;;;;;;0.40;0.40;;;15.50;99.90;;;;;;5076368;28;20192;-78
2022/06/29 04:07:31;;;;;;;0.40;0.40;;;15.60;99.90;;;;;;5074418;28;20246;-77
2022/06/29 04:09:59;;;;;;;0.50;0.50;;;15.70;99.90;;;;;;5073580;28;20181;-77
2022/06/29 04:12:33;;;;;;;0.40;0.40;;;15.70;99.90;;;;;;5067544;28;20230;-77
2022/06/29 04:14:58;;;;;;;0.40;0.40;;;15.70;99.90;;;;;;5067851;28;20559;-78
2022/06/29 04:17:24;;;;;;;0.40;0.40;;;15.80;99.90;;;;;;5063602;28;20189;-81
2022/06/29 04:19:52;;;;;;;0.30;0.30;;;15.90;99.90;;;;;;5071964;28;20221;-77
2022/06/29 04:22:19;;;;;;;0.50;0.50;;;16.00;99.90;;;;;;5073181;28;20247;-77
2022/06/29 04:24:45;;;;;;;0.37;0.37;;;16.10;99.90;;;;;;5074093;28;20178;-77
2022/06/29 04:27:11;;;;;;;0.30;0.30;;;16.10;99.90;;;;;;5073264;28;20237;-77
2022/06/29 04:29:36;;;;;;;0.40;0.40;;;16.20;99.90;;;;;;5073205;28;20170;-77
2022/06/29 04:32:03;;;;;;;0.40;0.40;;;16.30;99.90;;;;;;5073265;28;20194;-78
2022/06/29 04:34:28;;;;;;;0.37;0.37;;;16.40;99.90;;;;;;5074726;28;20520;-78
2022/06/29 04:36:54;;;;;;;0.37;0.37;;;16.40;99.90;;;;;;5076238;28;20174;-78
2022/06/29 04:39:19;;;;;;;0.30;0.30;;;16.50;99.90;;;;;;5075769;28;20849;-80
2022/06/29 04:41:45;;;;;;;0.40;0.40;;;16.50;99.90;;;;;;5075674;28;20198;-77
2022/06/29 04:44:11;;;;;;;0.40;0.40;;;16.40;99.90;;;;;;5075128;28;20236;-77
2022/06/29 04:46:36;;;;;;;0.30;0.30;;;16.30;99.90;;;;;;5074385;28;20197;-78
2022/06/29 04:49:02;;;;;;;0.33;0.33;;;16.30;99.90;;;;;;5075940;28;20592;-78
2022/06/29 04:51:31;;;;;;;0.40;0.40;;;16.30;99.90;;;;;;5077615;28;20182;-77
2022/06/29 04:53:57;;;;;;;0.30;0.30;;;16.30;99.90;;;;;;5099953;28;20590;-78
2022/06/29 04:56:34;;;;;;;0.40;0.40;;;16.30;99.90;;;;;;5101179;28;20235;-79
2022/06/29 04:59:01;;;;;;;0.40;0.40;;;16.30;99.90;;;;;;5098848;28;20197;-80
2022/06/29 05:01:28;;;;;;;0.33;0.33;;;16.30;99.90;;;;;;5095723;28;20208;-79
2022/06/29 05:03:55;;;;;;;0.40;0.40;;;16.30;99.90;;;;;;5068754;28;20189;-78
2022/06/29 05:06:21;;;;;;;0.40;0.40;;;16.30;99.90;;;;;;5077951;28;20208;-78
2022/06/29 05:08:48;;;;;;;0.30;0.30;;;16.30;99.90;;;;;;5078896;28;20186;-79
2022/06/29 05:11:14;;;;;;;0.40;0.40;;;16.30;99.90;;;;;;5077101;28;20183;-78
2022/06/29 05:13:41;;;;;;;0.33;0.33;;;16.40;99.90;;;;;;5098053;28;20181;-78
2022/06/29 05:16:07;;;;;;;0.30;0.30;;;16.40;99.90;;;;;;5096901;28;20174;-77
2022/06/29 05:18:34;;;;;;;0.40;0.40;;;16.50;99.90;;;;;;5103021;28;20178;-79
2022/06/29 05:21:00;;;;;;;0.30;0.30;;;16.50;99.90;;;;;;5099061;28;20252;-82
2022/06/29 05:23:26;;;;;;;0.33;0.33;;;16.60;99.90;;;;;;5098512;28;20190;-76
2022/06/29 05:25:52;;;;;;;0.40;0.40;;;16.50;99.90;;;;;;5060666;28;20171;-76
2022/06/29 05:28:18;;;;;;;0.30;0.30;;;16.50;99.90;;;;;;5057822;28;20667;-77
2022/06/29 05:30:43;;;;;;;0.40;0.40;;;16.60;99.90;;;;;;5055907;28;20175;-78
2022/06/29 05:33:09;;;;;;;0.40;0.40;;;16.70;99.90;;;;;;5087787;28;20558;-78
2022/06/29 05:35:35;;;;;;;0.40;0.40;;;16.80;99.90;;;;;;5065422;28;20188;-78
2022/06/29 05:38:03;;;;;;;0.30;0.30;;;16.90;99.90;;;;;;5065112;28;20310;-78
2022/06/29 05:40:30;;;;;;;0.40;0.40;;;16.90;99.90;;;;;;5073256;28;20217;-78
2022/06/29 05:42:59;;;;;;;0.30;0.30;;;16.90;99.90;;;;;;5077031;28;20300;-79
2022/06/29 05:45:25;;;;;;;0.37;0.37;;;16.90;99.90;;;;;;5077436;28;20218;-78
2022/06/29 05:47:53;;;;;;;0.30;0.30;;;16.90;99.90;;;;;;5078380;28;20171;-78
2022/06/29 05:50:19;;;;;;;0.40;0.40;;;16.90;99.90;;;;;;5073877;28;20592;-78
2022/06/29 05:52:44;;;;;;;0.30;0.30;;;16.90;99.90;;;;;;5073857;28;20220;-79
2022/06/29 05:55:10;;;;;;;0.40;0.40;;;16.90;99.90;;;;;;5075600;28;20174;-79
2022/06/29 05:57:35;;;;;;;0.33;0.33;;;16.80;99.90;;;;;;5067413;28;20182;-78
2022/06/29 06:00:03;;;;;;;0.37;0.37;;;16.90;99.90;;;;;;5073301;28;20566;-78
2022/06/29 06:02:29;;;;;;;0.40;0.40;;;16.90;99.90;;;;;;5070579;28;20195;-78
2022/06/29 06:04:54;;;;;;;0.40;0.40;;;17.00;99.90;;;;;;5067491;28;20202;-77
2022/06/29 06:07:20;;;;;;;0.30;0.30;;;17.00;99.90;;;;;;5074222;28;20182;-78
2022/06/29 06:09:45;;;;;;;0.40;0.40;;;17.00;99.90;;;;;;5066241;28;20183;-78
2022/06/29 06:12:11;;;;;;;0.30;0.30;;;17.00;99.90;;;;;;5067645;28;20182;-78
2022/06/29 06:14:37;;;;;;;0.40;0.40;;;17.10;99.90;;;;;;5064917;28;20182;-77
2022/06/29 06:17:03;;;;;;;0.30;0.30;;;17.00;99.90;;;;;;5062643;28;20168;-77
2022/06/29 06:19:29;;;;;;;0.33;0.33;;;17.00;99.90;;;;;;5067928;28;20213;-77
2022/06/29 06:21:54;;;;;;;0.40;0.40;;;17.10;99.90;;;;;;5073974;28;20549;-78
2022/06/29 06:24:20;;;;;;;0.30;0.30;;;17.20;99.90;;;;;;5074371;28;20178;-79
2022/06/29 06:26:47;;;;;;;0.40;0.40;;;17.30;99.90;;;;;;5056465;28;20746;-78
2022/06/29 06:29:12;;;;;;;0.30;0.30;;;17.40;99.90;;;;;;5074468;28;20213;-78
2022/06/29 06:31:38;;;;;;;0.40;0.40;;;17.50;99.90;;;;;;5071549;28;20191;-78
2022/06/29 06:34:04;;;;;;;0.30;0.30;;;17.50;99.90;;;;;;5072275;28;20178;-77
2022/06/29 06:36:30;;;;;;;0.30;0.30;;;17.70;99.90;;;;;;5075109;28;20249;-78
2022/06/29 06:38:55;;;;;;;0.40;0.40;;;17.70;99.90;;;;;;5077708;28;20212;-78
2022/06/29 06:41:21;;;;;;;0.40;0.40;;;17.80;99.90;;;;;;5077772;28;20206;-78
2022/06/29 06:43:52;;;;;;;0.40;0.40;;;18.00;99.90;;;;;;5078254;28;20258;-78
2022/06/29 06:46:18;;;;;;;0.30;0.30;;;18.10;99.90;;;;;;5075985;28;20217;-78
2022/06/29 06:48:44;;;;;;;0.40;0.40;;;18.30;99.90;;;;;;5068541;28;20186;-78
2022/06/29 06:51:10;;;;;;;0.37;0.37;;;18.50;99.60;;;;;;5063184;28;20171;-78
2022/06/29 06:53:36;;;;;;;0.40;0.40;;;18.60;99.90;;;;;;5065822;28;20174;-78
2022/06/29 06:56:02;;;;;;;0.30;0.30;;;18.70;99.90;;;;;;5060311;28;20660;-78
2022/06/29 06:58:28;;;;;;;0.30;0.30;;;18.70;90.60;;;;;;5056244;28;20183;-78
2022/06/29 07:00:53;;;;;;;0.30;0.30;;;18.80;99.90;;;;;;5055365;28;20265;-78
2022/06/29 07:03:19;;;;;;;0.40;0.40;;;19.10;99.90;;;;;;5055911;28;20191;-78
2022/06/29 07:05:44;;;;;;;0.30;0.30;;;19.30;96.20;;;;;;5055810;28;20194;-78
2022/06/29 07:08:10;;;;;;;0.30;0.30;;;19.60;1.00;;;;;;5054831;28;20194;-78
2022/06/29 07:10:35;;;;;;;0.30;0.30;;;19.80;1.00;;;;;;5055061;28;20305;-78
2022/06/29 07:13:01;;;;;;;0.40;0.40;;;19.90;1.00;;;;;;5055942;28;20552;-78
2022/06/29 07:15:26;;;;;;;0.30;0.30;;;20.00;1.00;;;;;;5056323;28;20652;-78
2022/06/29 07:17:52;;;;;;;0.30;0.30;;;20.10;1.00;;;;;;5055924;28;20511;-78
2022/06/29 07:20:18;;;;;;;0.30;0.30;;;20.30;1.00;;;;;;5056511;28;20211;-78
2022/06/29 07:22:43;;;;;;;0.40;0.40;;;20.30;1.00;;;;;;5055190;28;20191;-78
2022/06/29 07:25:09;;;;;;;0.40;0.40;;;20.50;1.00;;;;;;5055897;28;20171;-78
2022/06/29 07:27:34;;;;;;;0.30;0.30;;;20.60;1.00;;;;;;5055146;28;20726;-78
2022/06/29 07:30:00;;;;;;;0.30;0.30;;;20.80;1.00;;;;;;5055166;28;20713;-78
2022/06/29 07:32:25;;;;;;;0.30;0.30;;;21.10;1.00;;;;;;5056049;28;20233;-78
2022/06/29 07:34:51;;;;;;;0.30;0.30;;;21.30;1.00;;;;;;5056582;28;20180;-78
2022/06/29 07:37:16;;;;;;;0.30;0.30;;;21.40;99.90;;;;;;5056458;28;20266;-78
2022/06/29 07:39:42;;;;;;;0.30;0.30;;;21.40;1.00;;;;;;5056609;28;20219;-78
2022/06/29 07:42:08;;;;;;;0.30;0.30;;;21.60;99.90;;;;;;5057969;28;20203;-79
2022/06/29 07:44:33;;;;;;;0.20;0.20;;;21.90;1.00;;;;;;5058239;28;20186;-78
2022/06/29 07:46:59;;;;;;;0.30;0.30;;;22.10;99.90;;;;;;5058801;28;20186;-78
2022/06/29 07:49:24;;;;;;;0.30;0.30;;;22.40;1.00;;;;;;5058627;28;20675;-78
2022/06/29 07:51:53;;;;;;;0.40;0.40;;;22.50;99.90;;;;;;5058526;28;20699;-78
2022/06/29 07:54:19;;;;;;;0.30;0.30;;;22.80;1.00;;;;;;5058607;28;20195;-79
2022/06/29 07:56:44;;;;;;;0.40;0.40;;;23.20;99.90;;;;;;5059255;28;20190;-78
2022/06/29 07:59:10;;;;;;;0.37;0.37;;;23.50;96.80;;;;;;5057478;28;20802;-78
2022/06/29 08:01:36;;;;;;;0.20;0.20;;;23.80;99.90;;;;;;5060350;28;20716;-79
2022/06/29 08:04:01;;;;;;;0.37;0.37;;;24.00;69.80;;;;;;5057794;28;20201;-78
2022/06/29 08:06:27;;;;;;;0.30;0.30;;;24.30;1.00;;;;;;5057003;28;20179;-79
2022/06/29 08:08:53;;;;;;;0.30;0.30;;;24.70;1.00;;;;;;5058151;28;20168;-80
2022/06/29 08:11:18;;;;;;;0.30;0.30;;;25.00;1.00;;;;;;5059791;28;20175;-79
2022/06/29 08:13:44;;;;;;;0.40;0.40;;;25.10;99.90;;;;;;5058113;28;20185;-78
2022/06/29 08:16:09;;;;;;;0.40;0.40;;;25.20;99.90;;;;;;5058507;28;20171;-79
2022/06/29 08:18:36;;;;;;;0.30;0.30;;;24.90;99.90;;;;;;5059029;28;20175;-78
2022/06/29 08:21:03;;;;;;;0.40;0.40;;;24.90;99.90;;;;;;5059137;28;20210;-79
2022/06/29 08:23:29;;;;;;;0.30;0.30;;;25.10;99.90;;;;;;5059080;28;20632;-80
2022/06/29 08:25:54;;;;;;;0.37;0.37;;;25.30;99.90;;;;;;5059786;28;20211;-80
2022/06/29 08:28:20;;;;;;;0.40;0.40;;;25.40;99.90;;;;;;5060011;28;20507;-79
2022/06/29 08:30:46;;;;;;;0.37;0.37;;;25.30;99.90;;;;;;5059422;28;20604;-79
2022/06/29 08:33:12;;;;;;;0.30;0.30;;;25.40;99.90;;;;;;5057817;28;20202;-79
2022/06/29 08:35:37;;;;;;;0.30;0.30;;;25.60;99.90;;;;;;5057273;28;20347;-79
2022/06/29 08:38:03;;;;;;;0.40;0.40;;;25.70;99.90;;;;;;5074009;28;20181;-78
2022/06/29 08:40:42;;;;;;;0.40;0.40;;;25.80;1.00;;;;;;5078314;28;20198;-79
2022/06/29 08:43:11;;;;;;;0.33;0.33;;;25.90;1.00;;;;;;5078073;28;20218;-78
2022/06/29 08:45:44;;;;;;;0.30;0.30;;;26.40;1.00;;;;;;5079996;28;20193;-80
2022/06/29 08:48:10;;;;;;;0.50;0.50;;;26.70;1.00;;;;;;5081440;28;20175;-80
2022/06/29 08:50:41;;;;;;;0.37;0.37;;;26.90;1.00;;;;;;5072046;28;20179;-81
2022/06/29 08:53:08;;;;;;;0.50;0.50;;;27.20;1.00;;;;;;5059550;28;20203;-80
2022/06/29 08:55:40;;;;;;;0.40;0.40;;;27.10;1.00;;;;;;5059543;28;20183;-79
2022/06/29 08:58:06;;;;;;;0.40;0.40;;;26.90;1.00;;;;;;5063871;28;20183;-80
2022/06/29 09:00:36;;;;;;;0.50;0.50;;;27.20;1.00;;;;;;5062240;28;20245;-79
2022/06/29 09:03:04;;;;;;;0.40;0.40;;;27.50;1.00;;;;;;5063339;28;20222;-80
2022/06/29 09:05:30;;;;;;;0.50;0.50;;;28.00;1.00;;;;;;5066696;28;20171;-80
2022/06/29 09:07:55;;;;;;;0.60;0.60;;;28.40;1.00;;;;;;5067786;28;20725;-79
2022/06/29 09:10:23;;;;;;;0.50;0.50;;;28.40;1.00;;;;;;5067659;28;20171;-78
2022/06/29 09:12:49;;;;;;;0.50;0.50;;;28.90;1.00;;;;;;5069155;28;20195;-80
2022/06/29 09:15:16;;;;;;;0.50;0.50;;;29.10;1.00;;;;;;5068923;28;20198;-79
2022/06/29 09:17:42;;;;;;;0.57;0.57;;;28.90;1.00;;;;;;5069411;28;20183;-79
2022/06/29 09:20:10;;;;;;;0.50;0.50;;;28.70;1.00;;;;;;5069482;28;20214;-79
2022/06/29 09:22:41;;;;;;;0.43;0.43;;;28.30;1.00;;;;;;5069877;28;20194;-80
2022/06/29 09:25:27;;;;;;;0.40;0.40;;;27.90;1.00;;;;;;5070206;28;20177;-79
2022/06/29 09:27:55;;;;;;;0.67;0.67;;;28.10;1.00;;;;;;5069361;28;20175;-80
2022/06/29 09:30:26;;;;;;;0.60;0.60;;;28.40;1.00;;;;;;5067022;28;20680;-79
2022/06/29 09:33:19;;;;;;;0.60;0.60;;;28.50;1.00;;;;;;5083021;28;20218;-80
2022/06/29 09:36:14;;;;;;;0.50;0.50;;;28.60;1.00;;;;;;5099950;28;20205;-79
2022/06/29 09:38:40;;;;;;;0.40;0.40;;;28.60;1.00;;;;;;5086126;28;20178;-80
2022/06/29 09:41:12;;;;;;;0.47;0.47;;;28.10;1.00;;;;;;5092613;28;20217;-79
2022/06/29 09:43:39;;;;;;;0.50;0.50;;;28.50;1.00;;;;;;5099321;28;20195;-82
2022/06/29 09:46:06;;;;;;;0.43;0.43;;;28.60;1.00;;;;;;5098119;28;20213;-80
2022/06/29 09:48:34;;;;;;;0.70;0.70;;;29.00;1.00;;;;;;5096760;28;20178;-79
2022/06/29 09:51:00;;;;;;;0.50;0.50;;;29.30;1.00;;;;;;5089909;28;20197;-79
2022/06/29 09:53:39;;;;;;;0.40;0.40;;;28.80;1.00;;;;;;5090799;28;20194;-80
2022/06/29 09:56:07;;;;;;;0.30;0.30;;;28.40;1.00;;;;;;5091112;28;20170;-80
2022/06/29 09:58:47;;;;;;;0.40;0.40;;;28.00;1.00;;;;;;5090414;28;20308;-80
2022/06/29 10:04:00;;;;;;;0.40;0.40;;;27.50;1.00;;;;;;5086468;28;20181;-79
2022/06/29 10:06:25;;;;;;;0.60;0.60;;;28.20;1.00;;;;;;5091878;28;20213;-80
2022/06/29 10:08:52;;;;;;;0.40;0.40;;;28.80;1.00;;;;;;5093151;28;20182;-80
2022/06/29 10:14:36;;;;;;;0.50;0.50;;;29.00;1.00;;;;;;5064424;28;20189;-79
2022/06/29 10:17:23;;;;;;;0.60;0.60;;;29.40;1.00;;;;;;5087070;28;20171;-80
2022/06/29 10:20:09;;;;;;;0.50;0.50;;;29.70;1.00;;;;;;5094178;28;20224;-79
2022/06/29 10:22:35;;;;;;;0.53;0.53;;;30.00;1.00;;;;;;5093268;28;20235;-80
2022/06/29 10:25:06;;;;;;;0.40;0.40;;;30.00;1.00;;;;;;5092783;28;20234;-79
2022/06/29 10:27:32;;;;;;;0.50;0.50;;;30.30;1.00;;;;;;5086528;28;20175;-79
2022/06/29 10:30:20;;;;;;;0.40;0.40;;;30.50;1.00;;;;;;5083195;28;20182;-79
2022/06/29 10:32:47;;;;;;;0.50;0.50;;;30.20;1.00;;;;;;5085479;28;20703;-79
2022/06/29 10:35:12;;;;;;;0.50;0.50;;;29.70;1.00;;;;;;5083360;28;20221;-79
2022/06/29 10:37:48;;;;;;;0.53;0.53;;;29.20;1.00;;;;;;5087031;28;20175;-79
2022/06/29 10:40:19;;;;;;;0.67;0.67;;;28.70;1.00;;;;;;5094020;28;20213;-78
2022/06/29 10:45:38;;;;;;;0.60;0.60;;;27.80;1.00;;;;;;5092587;28;20265;-78
2022/06/29 10:48:07;;;;;;;0.50;0.50;;;27.40;1.00;;;;;;5075789;28;20181;-78
2022/06/29 10:50:38;;;;;;;0.50;0.50;;;26.90;1.00;;;;;;5093547;28;20194;-78
2022/06/29 10:53:09;;;;;;;0.30;0.30;;;26.60;1.00;;;;;;5093079;28;20206;-79
2022/06/29 10:55:38;;;;;;;0.50;0.50;;;26.50;1.00;;;;;;5092816;28;20158;-80
2022/06/29 10:58:04;;;;;;;0.40;0.40;;;26.30;1.00;;;;;;5092904;28;20178;-79
2022/06/29 11:00:33;;;;;;;0.33;0.33;;;26.20;1.00;;;;;;5092458;28;20214;-79
2022/06/29 11:03:16;;;;;;;0.40;0.40;;;26.10;1.00;;;;;;5092207;28;20269;-79
2022/06/29 11:13:59;;;;;;;0.50;0.50;;;25.60;1.00;;;;;;5072629;28;20228;-80
2022/06/29 11:16:35;;;;;;;0.40;0.40;;;25.60;1.00;;;;;;5064861;28;20221;-80
2022/06/29 11:19:01;;;;;;;0.40;0.40;;;25.60;99.90;;;;;;5062524;28;20257;-80
2022/06/29 11:21:30;;;;;;;0.40;0.40;;;25.70;99.90;;;;;;5064134;28;20210;-80
2022/06/29 11:23:57;;;;;;;0.40;0.40;;;25.80;1.00;;;;;;5065001;28;20191;-80
2022/06/29 11:26:24;;;;;;;0.37;0.37;;;25.90;1.00;;;;;;5064685;28;20189;-80
2022/06/29 11:28:49;;;;;;;0.40;0.40;;;26.00;1.00;;;;;;5066187;28;20182;-80
2022/06/29 11:31:16;;;;;;;0.30;0.30;;;26.20;1.00;;;;;;5065002;28;20799;-80
2022/06/29 11:33:44;;;;;;;0.40;0.40;;;26.30;1.00;;;;;;5066019;28;20179;-80
2022/06/29 11:36:13;;;;;;;0.40;0.40;;;26.30;1.00;;;;;;5067572;28;20167;-79
2022/06/29 11:38:41;;;;;;;0.30;0.30;;;26.40;1.00;;;;;;5068018;28;20175;-81
2022/06/29 11:41:11;;;;;;;0.40;0.40;;;26.30;1.00;;;;;;5069976;28;20211;-80
2022/06/29 11:43:37;;;;;;;0.40;0.40;;;26.30;1.00;;;;;;5069408;28;20195;-80
2022/06/29 11:46:02;;;;;;;0.30;0.30;;;26.50;1.00;;;;;;5065311;28;20210;-82
2022/06/29 11:48:29;;;;;;;0.40;0.40;;;26.70;1.00;;;;;;5063358;28;20181;-79
2022/06/29 11:50:56;;;;;;;0.30;0.30;;;26.80;1.00;;;;;;5061966;28;20195;-79
2022/06/29 11:53:48;;;;;;;0.40;0.40;;;27.10;1.00;;;;;;5063268;28;20199;-79
2022/06/29 11:56:19;;;;;;;0.50;0.50;;;27.30;1.00;;;;;;5062873;28;20179;-79
2022/06/29 11:58:54;;;;;;;0.50;0.50;;;27.50;1.00;;;;;;5063652;28;20191;-78
2022/06/29 12:01:24;;;;;;;0.43;0.43;;;27.70;1.00;;;;;;5067071;28;20190;-80
2022/06/29 12:03:52;;;;;;;0.40;0.40;;;27.90;1.00;;;;;;5067734;28;20175;-78
2022/06/29 12:06:19;;;;;;;0.40;0.40;;;28.10;1.00;;;;;;5068945;28;20175;-80
2022/06/29 12:08:45;;;;;;;0.50;0.50;;;28.10;1.00;;;;;;5066919;28;20238;-80
2022/06/29 12:11:11;;;;;;;0.60;0.60;;;28.30;1.00;;;;;;5067006;28;20194;-79
2022/06/29 12:13:37;;;;;;;0.60;0.60;;;28.40;1.00;;;;;;5067675;28;20168;-78
2022/06/29 12:16:03;;;;;;;0.60;0.60;;;28.70;1.00;;;;;;5067279;28;20568;-79
2022/06/29 12:18:30;;;;;;;0.60;0.60;;;28.80;1.00;;;;;;5067000;28;20175;-80
2022/06/29 12:20:55;;;;;;;0.60;0.60;;;29.20;1.00;;;;;;5065355;28;20223;-81
2022/06/29 12:23:21;;;;;;;0.60;0.60;;;29.70;1.00;;;;;;5064106;28;20198;-79
2022/06/29 12:25:46;;;;;;;0.50;0.50;;;30.10;1.00;;;;;;5064323;28;20170;-80
2022/06/29 12:28:12;;;;;;;0.40;0.40;;;30.30;1.00;;;;;;5065031;28;20190;-79
2022/06/29 12:30:38;;;;;;;0.40;0.40;;;30.40;1.00;;;;;;5062642;28;20753;-79
2022/06/29 12:33:04;;;;;;;0.50;0.50;;;30.30;1.00;;;;;;5068941;28;20191;-77
2022/06/29 12:35:30;;;;;;;0.53;0.53;;;30.40;1.00;;;;;;5072247;28;20171;-78
2022/06/29 12:37:59;;;;;;;0.50;0.50;;;30.60;1.00;;;;;;5071233;28;20194;-77
2022/06/29 12:40:25;;;;;;;0.40;0.40;;;30.50;1.00;;;;;;5071631;28;20226;-78
2022/06/29 12:42:52;;;;;;;0.50;0.50;;;30.00;1.00;;;;;;5074249;28;20247;-78
2022/06/29 12:45:18;;;;;;;0.70;0.70;;;29.60;1.00;;;;;;5072737;28;20175;-80
2022/06/29 12:47:43;;;;;;;0.50;0.50;;;29.60;1.00;;;;;;5070418;28;20183;-81
2022/06/29 12:50:09;;;;;;;0.60;0.60;;;29.70;1.00;;;;;;5071683;28;20185;-80
2022/06/29 12:52:35;;;;;;;0.60;0.60;;;29.80;1.00;;;;;;5067157;28;20220;-79
2022/06/29 12:55:00;;;;;;;0.50;0.50;;;29.90;1.00;;;;;;5065986;28;20179;-79
2022/06/29 12:57:26;;;;;;;0.50;0.50;;;30.00;1.00;;;;;;5066195;28;20243;-80
2022/06/29 12:59:52;;;;;;;0.50;0.50;;;30.10;1.00;;;;;;5065603;28;20206;-80
2022/06/29 13:02:21;;;;;;;0.57;0.57;;;30.00;1.00;;;;;;5066681;28;20683;-80
2022/06/29 13:04:48;;;;;;;0.60;0.60;;;30.50;1.00;;;;;;5064717;28;20202;-81
2022/06/29 13:07:13;;;;;;;0.50;0.50;;;30.70;1.00;;;;;;5065983;28;20180;-80
2022/06/29 13:09:39;;;;;;;0.50;0.50;;;30.70;1.00;;;;;;5056585;28;20172;-82